Time;durP1;ratioP1;P1;durP2;ratioP2;P2;SDS_P1;SDS_P2;PMS_P1;PMS_P2;Temp;Humidity;BMP_temperature;BMP_pressure;BME280_temperature;BME280_humidity;BME280_pressure;Samples;Min_cycle;Max_cycle;Signal;HPM_P1;HPM_P2
2021/06/17 00:02:23;;;;;;;16.33;6.55;;;;;;;12.19;65.96;100375.44;4844594;29;20051;-78
2021/06/17 00:04:49;;;;;;;15.02;6.03;;;;;;;11.93;65.72;100334.69;4845195;29;20072;-79
2021/06/17 00:07:15;;;;;;;12.80;6.38;;;;;;;12.18;65.91;100376.31;4830228;29;20049;-80
2021/06/17 00:09:41;;;;;;;25.00;6.72;;;;;;;12.09;66.05;100368.53;4878791;29;20053;-80
2021/06/17 00:12:07;;;;;;;15.55;6.97;;;;;;;12.10;66.32;100365.03;4882388;29;20061;-79
2021/06/17 00:14:34;;;;;;;17.42;7.20;;;;;;;11.99;66.34;100349.47;4882717;29;20096;-81
2021/06/17 00:17:02;;;;;;;18.77;6.97;;;;;;;12.20;66.24;100390.22;4882490;29;20041;-78
2021/06/17 00:19:28;;;;;;;13.05;6.57;;;;;;;12.09;66.19;100381.56;4882257;29;20066;-78
2021/06/17 00:21:55;;;;;;;17.02;7.05;;;;;;;12.18;66.45;100407.63;4867811;29;20031;-80
2021/06/17 00:24:21;;;;;;;16.35;6.78;;;;;;;12.18;66.51;100405.00;4852588;29;20065;-80
2021/06/17 00:26:50;;;;;;;13.52;7.55;;;;;;;12.16;66.82;100398.94;4867640;29;20026;-80
2021/06/17 00:29:17;;;;;;;13.48;6.78;;;;;;;12.19;66.80;100407.59;4836511;29;20021;-80
2021/06/17 00:31:43;;;;;;;17.67;7.05;;;;;;;11.90;66.77;100361.66;4867627;29;20046;-79
2021/06/17 00:34:09;;;;;;;15.25;7.13;;;;;;;12.01;66.43;100379.00;4864766;29;20025;-81
2021/06/17 00:36:39;;;;;;;15.57;5.85;;;;;;;12.17;66.61;100405.88;4851426;29;20033;-78
2021/06/17 00:39:08;;;;;;;13.88;6.32;;;;;;;12.15;66.68;100410.25;4867892;29;20037;-79
2021/06/17 00:41:37;;;;;;;11.80;6.45;;;;;;;11.99;67.09;100394.69;4867112;29;20041;-82
2021/06/17 00:44:04;;;;;;;13.82;6.20;;;;;;;11.89;66.57;100387.72;4867333;29;20021;-79
2021/06/17 00:46:30;;;;;;;12.63;5.90;;;;;;;12.03;66.73;100398.97;4867135;29;20061;-80
2021/06/17 00:48:56;;;;;;;10.90;6.15;;;;;;;12.14;66.84;100421.53;4882813;29;20081;-79
2021/06/17 00:51:21;;;;;;;12.68;6.45;;;;;;;11.96;66.85;100394.66;4867264;29;20029;-78
2021/06/17 00:53:47;;;;;;;13.73;7.05;;;;;;;12.14;66.92;100422.41;4882654;29;20033;-79
2021/06/17 00:56:13;;;;;;;24.05;7.95;;;;;;;12.01;67.29;100397.28;4881880;29;20065;-78
2021/06/17 00:58:39;;;;;;;17.33;7.63;;;;;;;12.09;67.05;100420.69;4877317;29;20106;-80
2021/06/17 01:01:05;;;;;;;18.08;7.65;;;;;;;12.05;66.53;100407.66;4860191;29;20052;-80
2021/06/17 01:03:31;;;;;;;20.38;7.45;;;;;;;12.12;66.90;100426.78;4874446;29;20061;-81
2021/06/17 01:05:57;;;;;;;18.40;8.35;;;;;;;12.25;66.70;100443.22;4866912;29;20069;-81
2021/06/17 01:08:50;;;;;;;19.20;8.98;;;;;;;12.24;66.55;100454.56;4867203;29;20076;-79
2021/06/17 01:11:48;;;;;;;15.40;7.45;;;;;;;12.24;66.76;100467.59;4870436;29;20102;-78
2021/06/17 01:14:33;;;;;;;13.38;6.78;;;;;;;12.13;66.70;100443.28;4839216;29;20049;-82
2021/06/17 01:16:59;;;;;;;13.65;6.80;;;;;;;12.27;66.60;100469.31;4869729;29;20484;-78
2021/06/17 01:19:31;;;;;;;11.80;5.80;;;;;;;12.28;66.56;100464.06;4852957;29;20049;-80
2021/06/17 01:22:14;;;;;;;12.23;6.30;;;;;;;12.16;66.49;100444.13;4868739;29;20540;-80
2021/06/17 01:24:49;;;;;;;11.63;6.18;;;;;;;12.32;66.69;100462.34;4878117;29;20101;-77
2021/06/17 01:27:53;;;;;;;16.77;6.32;;;;;;;12.35;66.93;100462.31;4845125;29;20049;-78
2021/06/17 01:30:20;;;;;;;10.32;5.60;;;;;;;12.41;67.54;100469.25;4861290;29;20037;-78
2021/06/17 01:32:53;;;;;;;10.80;6.13;;;;;;;12.44;67.37;100450.97;4859600;29;20134;-79
2021/06/17 01:35:20;;;;;;;17.13;6.20;;;;;;;12.57;67.82;100456.97;4848735;29;20037;-79
2021/06/17 01:37:50;;;;;;;13.43;7.13;;;;;;;12.45;67.58;100424.84;4868877;29;20029;-79
2021/06/17 01:40:16;;;;;;;17.73;7.18;;;;;;;12.63;67.50;100449.97;4886004;29;20059;-80
2021/06/17 01:42:44;;;;;;;13.88;7.10;;;;;;;12.70;67.24;100444.66;4885773;29;20029;-80
2021/06/17 01:45:12;;;;;;;16.08;8.85;;;;;;;12.79;67.05;100452.44;4870442;29;20029;-79
2021/06/17 01:47:40;;;;;;;25.35;12.00;;;;;;;12.96;66.76;100471.47;4870204;29;20069;-78
2021/06/17 01:50:12;;;;;;;24.75;12.80;;;;;;;12.98;66.69;100473.19;4870245;29;20034;-81
2021/06/17 01:52:38;;;;;;;20.17;10.30;;;;;;;13.00;66.39;100472.31;4869855;29;20040;-79
2021/06/17 01:55:06;;;;;;;17.55;10.10;;;;;;;13.04;66.13;100479.22;4884775;29;20052;-79
2021/06/17 01:57:34;;;;;;;20.98;9.93;;;;;;;12.95;65.93;100469.72;4872475;29;20076;-79
2021/06/17 02:00:04;;;;;;;18.80;9.98;;;;;;;12.97;65.85;100451.44;4849854;29;20068;-80
2021/06/17 02:02:32;;;;;;;17.73;11.07;;;;;;;13.17;66.13;100481.75;4866682;29;20541;-81
2021/06/17 02:04:59;;;;;;;25.10;10.52;;;;;;;13.26;66.11;100490.38;4849513;29;20045;-82
2021/06/17 02:07:25;;;;;;;17.95;9.55;;;;;;;13.14;65.97;100464.34;4849243;29;20073;-80
2021/06/17 02:09:53;;;;;;;14.30;8.90;;;;;;;13.19;65.60;100462.56;4848679;29;20067;-81
2021/06/17 02:12:20;;;;;;;15.38;8.90;;;;;;;13.33;65.62;100458.97;4851147;29;20066;-81
2021/06/17 02:14:49;;;;;;;13.38;7.95;;;;;;;13.51;65.51;100476.22;4848487;29;20561;-77
2021/06/17 02:17:17;;;;;;;14.10;7.93;;;;;;;13.62;65.51;100487.47;4864254;29;20041;-80
2021/06/17 02:19:47;;;;;;;20.08;7.50;;;;;;;13.77;65.50;100496.88;4849770;29;20045;-80
2021/06/17 02:22:14;;;;;;;16.08;7.70;;;;;;;13.79;65.68;100484.63;4862374;29;20131;-79
2021/06/17 02:24:44;;;;;;;15.27;8.38;;;;;;;13.61;65.41;100443.00;4862169;29;20064;-79
2021/06/17 02:27:21;;;;;;;19.80;9.25;;;;;;;13.78;65.52;100451.53;4863676;29;20045;-80
2021/06/17 02:29:49;;;;;;;23.48;8.93;;;;;;;14.11;65.40;100486.00;4868904;29;20057;-79
2021/06/17 02:32:19;;;;;;;17.67;7.50;;;;;;;14.21;65.39;100480.69;4872827;29;20203;-80
2021/06/17 02:34:48;;;;;;;21.55;8.02;;;;;;;14.34;65.03;100492.69;4870557;29;20042;-82
2021/06/17 02:37:16;;;;;;;17.88;7.68;;;;;;;14.51;65.52;100509.94;4835240;29;20144;-80
2021/06/17 02:39:44;;;;;;;17.67;7.93;;;;;;;14.58;65.13;100499.34;4869986;29;20432;-79
2021/06/17 02:42:15;;;;;;;15.02;8.07;;;;;;;14.67;65.36;100481.78;4872465;29;20573;-80
2021/06/17 02:44:43;;;;;;;20.50;7.30;;;;;;;14.88;64.82;100504.19;4848773;29;20544;-77
2021/06/17 02:47:10;;;;;;;20.77;7.63;;;;;;;15.09;64.86;100512.59;4863423;29;20358;-80
2021/06/17 02:49:38;;;;;;;12.93;7.25;;;;;;;15.19;64.80;100514.19;4846328;29;20052;-80
2021/06/17 02:52:04;;;;;;;13.95;6.78;;;;;;;15.36;64.58;100517.38;4831179;29;20616;-80
2021/06/17 02:54:30;;;;;;;18.25;7.15;;;;;;;15.50;64.31;100503.16;4861725;29;20049;-79
2021/06/17 02:57:30;;;;;;;10.25;5.75;;;;;;;15.72;63.91;100521.97;4844948;29;20049;-80
2021/06/17 03:00:14;;;;;;;11.10;6.07;;;;;;;15.95;63.26;100521.59;4860689;29;20048;-81
2021/06/17 03:02:52;;;;;;;13.35;7.13;;;;;;;16.13;63.01;100515.97;4863502;29;20041;-80
2021/06/17 03:05:26;;;;;;;12.20;6.38;;;;;;;16.30;62.34;100520.88;4863417;29;20053;-81
2021/06/17 03:08:00;;;;;;;11.20;4.70;;;;;;;16.45;61.90;100519.69;4861115;29;20587;-80
2021/06/17 03:10:29;;;;;;;8.90;4.03;;;;;;;16.55;61.36;100511.56;4860992;29;20042;-80
2021/06/17 03:12:57;;;;;;;5.75;3.53;;;;;;;16.74;60.84;100505.91;4861323;29;20113;-79
2021/06/17 03:15:31;;;;;;;4.80;3.70;;;;;;;16.91;60.22;100507.25;4830297;29;20417;-80
2021/06/17 03:18:01;;;;;;;8.98;3.55;;;;;;;17.14;59.41;100522.53;4845821;29;20097;-82
2021/06/17 03:20:30;;;;;;;5.10;3.22;;;;;;;17.24;58.62;100518.75;4845582;29;20041;-80
2021/06/17 03:22:58;;;;;;;9.13;3.60;;;;;;;17.49;57.99;100526.00;4863166;29;20045;-79
2021/06/17 03:25:26;;;;;;;8.02;3.70;;;;;;;17.60;57.10;100520.47;4845079;29;20509;-77
2021/06/17 03:27:54;;;;;;;9.10;3.40;;;;;;;17.76;56.51;100529.66;4844033;29;20048;-80
2021/06/17 03:30:23;;;;;;;8.07;2.97;;;;;;;17.83;55.98;100518.97;4860323;29;20524;-78
2021/06/17 03:32:51;;;;;;;6.05;2.58;;;;;;;17.99;55.03;100519.44;4844993;29;20104;-79
2021/06/17 03:35:22;;;;;;;4.47;2.92;;;;;;;17.99;54.42;100508.91;4844977;29;20053;-79
2021/06/17 03:37:50;;;;;;;9.32;3.10;;;;;;;18.25;53.81;100525.75;4862007;29;20105;-80
2021/06/17 03:40:18;;;;;;;3.65;2.53;;;;;;;18.44;52.97;100547.13;4844849;29;20045;-80
2021/06/17 03:42:47;;;;;;;4.45;2.42;;;;;;;18.52;52.47;100538.09;4860272;29;20050;-77
2021/06/17 03:45:14;;;;;;;9.13;2.63;;;;;;;18.69;52.01;100535.84;4860260;29;20060;-82
2021/06/17 03:47:44;;;;;;;7.15;2.45;;;;;;;18.78;51.37;100530.28;4870445;29;20413;-79
2021/06/17 03:50:13;;;;;;;4.18;2.40;;;;;;;19.00;50.51;100541.03;4836386;29;20041;-80
2021/06/17 03:52:43;;;;;;;4.97;2.20;;;;;;;18.96;49.81;100513.06;4836641;29;20073;-80
2021/06/17 03:55:11;;;;;;;3.75;2.30;;;;;;;19.09;49.46;100519.66;4867610;29;20041;-81
2021/06/17 03:57:40;;;;;;;7.53;2.35;;;;;;;19.23;49.22;100513.03;4865693;29;20041;-81
2021/06/17 04:00:08;;;;;;;6.88;2.55;;;;;;;19.55;48.47;100537.47;4859980;29;20137;-82
2021/06/17 04:02:40;;;;;;;7.13;2.70;;;;;;;19.77;47.82;100542.00;4861812;29;20045;-81
2021/06/17 04:05:07;;;;;;;7.65;2.28;;;;;;;19.65;47.65;100495.78;4860976;29;20045;-81
2021/06/17 04:07:36;;;;;;;5.10;2.72;;;;;;;20.04;47.47;100545.47;4865085;29;20041;-81
2021/06/17 04:10:04;;;;;;;5.43;2.50;;;;;;;19.97;47.08;100517.56;4859636;29;20402;-77
2021/06/17 04:12:31;;;;;;;8.65;2.70;;;;;;;20.29;46.54;100553.34;4844892;29;20061;-81
2021/06/17 04:14:59;;;;;;;9.23;2.65;;;;;;;20.29;46.47;100521.66;4844544;29;20045;-77
2021/06/17 04:17:29;;;;;;;6.30;2.50;;;;;;;20.53;46.40;100547.19;4861224;29;20049;-77
2021/06/17 04:19:59;;;;;;;9.15;2.45;;;;;;;20.62;45.73;100550.31;4829889;29;20049;-79
2021/06/17 04:22:26;;;;;;;7.90;2.80;;;;;;;20.75;45.56;100558.66;4860920;29;20505;-80
2021/06/17 04:24:59;;;;;;;4.72;2.55;;;;;;;20.89;45.05;100558.13;4861373;29;20137;-80
2021/06/17 04:27:26;;;;;;;4.45;2.38;;;;;;;21.05;44.78;100568.97;4863007;29;20498;-80
2021/06/17 04:29:54;;;;;;;5.00;2.20;;;;;;;21.17;44.19;100537.63;4862332;29;20049;-80
2021/06/17 04:32:20;;;;;;;5.55;2.60;;;;;;;21.44;43.79;100547.97;4845870;29;20094;-79
2021/06/17 04:34:50;;;;;;;4.07;2.15;;;;;;;21.67;43.42;100547.88;4851195;29;20049;-80
2021/06/17 04:37:22;;;;;;;6.88;2.13;;;;;;;21.87;43.04;100550.56;4848292;29;20045;-81
2021/06/17 04:39:48;;;;;;;;;;;;;;;22.04;42.56;100557.78;4861166;29;20045;-81
2021/06/17 04:42:15;;;;;;;4.65;2.35;;;;;;;22.06;42.40;100563.88;4861202;29;19920;-83
2021/06/17 04:44:43;;;;;;;4.03;2.40;;;;;;;22.17;42.40;100560.72;4860074;29;20049;-79
2021/06/17 04:47:10;;;;;;;8.13;2.40;;;;;;;22.17;42.14;100544.84;4843772;29;20521;-80
2021/06/17 04:49:38;;;;;;;6.32;2.15;;;;;;;22.29;42.14;100543.41;4860644;29;20520;-80
2021/06/17 04:52:09;;;;;;;5.55;2.03;;;;;;;22.61;42.11;100570.25;4859968;29;20049;-79
2021/06/17 04:54:35;;;;;;;6.00;2.15;;;;;;;22.75;41.60;100570.47;4859829;29;20514;-81
2021/06/17 04:57:01;;;;;;;5.07;1.90;;;;;;;22.92;41.49;100574.97;4829949;29;20056;-81
2021/06/17 04:59:28;;;;;;;5.10;2.03;;;;;;;22.90;40.68;100555.59;4866987;29;20052;-81
2021/06/17 05:01:56;;;;;;;8.95;2.30;;;;;;;23.14;40.23;100565.94;4864070;29;20139;-83
2021/06/17 05:04:22;;;;;;;5.85;2.40;;;;;;;23.21;40.31;100564.72;4847633;29;20109;-82
2021/06/17 05:12:17;;;;;;;6.85;1.92;;;;;;;23.68;38.55;100544.66;4848605;29;20518;-83
2021/06/17 05:14:43;;;;;;;4.20;1.90;;;;;;;23.65;38.39;100522.69;4830579;29;20049;-80
2021/06/17 05:17:09;;;;;;;6.72;1.92;;;;;;;23.90;37.89;100562.97;4854821;29;20678;-81
2021/06/17 05:19:35;;;;;;;2.30;1.50;;;;;;;24.02;37.44;100579.28;4848140;29;20073;-80
2021/06/17 05:22:02;;;;;;;4.05;1.60;;;;;;;24.10;37.07;100565.56;4830055;29;20077;-80
2021/06/17 05:24:28;;;;;;;4.65;1.75;;;;;;;24.13;36.72;100546.78;4846798;29;20074;-79
2021/06/17 05:26:55;;;;;;;5.90;1.83;;;;;;;24.42;36.30;100574.44;4845118;29;20042;-80
2021/06/17 05:29:21;;;;;;;2.72;1.60;;;;;;;24.56;35.93;100576.34;4846056;29;20046;-82
2021/06/17 05:31:47;;;;;;;3.88;1.80;;;;;;;24.69;36.16;100580.97;4831187;29;20113;-82
2021/06/17 05:34:13;;;;;;;5.72;2.03;;;;;;;24.70;36.21;100569.41;4831238;29;20069;-81
2021/06/17 05:36:40;;;;;;;3.95;1.45;;;;;;;24.85;35.41;100581.84;4844409;29;20053;-79
2021/06/17 05:39:06;;;;;;;4.82;1.48;;;;;;;24.92;35.56;100575.25;4845460;29;20069;-80
2021/06/17 05:41:33;;;;;;;1.83;0.98;;;;;;;25.08;34.63;100588.56;4828670;29;20069;-82
2021/06/17 05:43:59;;;;;;;3.03;1.00;;;;;;;25.21;33.68;100574.53;4846213;29;20038;-83
2021/06/17 05:46:25;;;;;;;1.65;1.15;;;;;;;25.32;33.36;100582.75;4846180;29;20057;-79
2021/06/17 05:48:50;;;;;;;2.33;1.15;;;;;;;25.41;33.16;100562.72;4844866;29;20048;-82
2021/06/17 05:51:16;;;;;;;2.28;1.23;;;;;;;25.97;32.26;100581.59;4844824;29;20193;-80
2021/06/17 05:53:45;;;;;;;2.45;1.17;;;;;;;26.89;32.06;100574.09;4845009;29;20050;-79
2021/06/17 05:56:11;;;;;;;2.72;1.15;;;;;;;28.82;30.91;100563.59;4846002;29;20502;-79
2021/06/17 05:58:37;;;;;;;1.58;1.30;;;;;;;31.16;27.59;100553.44;4829325;29;20042;-80
2021/06/17 06:01:03;;;;;;;2.90;1.45;;;;;;;33.13;26.35;100562.34;4831738;29;20513;-82
2021/06/17 06:03:29;;;;;;;3.60;2.15;;;;;;;34.92;24.19;100554.28;4849234;29;20037;-80
2021/06/17 06:05:55;;;;;;;3.08;1.60;;;;;;;36.20;22.81;100548.41;4816405;29;20429;-80
2021/06/17 06:08:21;;;;;;;5.13;1.30;;;;;;;37.17;20.92;100544.38;4827556;29;20045;-79
2021/06/17 06:10:47;;;;;;;3.63;1.35;;;;;;;38.18;20.04;100539.41;4854168;29;20041;-81
2021/06/17 06:13:15;;;;;;;4.47;1.30;;;;;;;39.12;18.55;100553.97;4859599;29;20090;-82
2021/06/17 06:15:41;;;;;;;5.70;1.90;;;;;;;40.20;18.19;100554.56;4876583;29;20089;-80
2021/06/17 06:18:15;;;;;;;5.93;1.35;;;;;;;41.16;16.63;100554.53;4867920;29;20132;-82
2021/06/17 06:20:44;;;;;;;4.63;1.45;;;;;;;42.20;16.15;100566.53;4848930;29;20053;-80
2021/06/17 06:23:11;;;;;;;1.80;1.20;;;;;;;43.05;15.02;100568.00;4864102;29;20118;-81
2021/06/17 06:25:38;;;;;;;3.28;1.00;;;;;;;43.60;14.12;100561.41;4834917;29;20361;-79
2021/06/17 06:28:04;;;;;;;1.70;0.85;;;;;;;43.94;13.49;100570.41;4865940;29;20037;-79
2021/06/17 06:30:31;;;;;;;4.25;1.73;;;;;;;44.37;13.13;100567.06;4864428;29;20092;-81
2021/06/17 06:32:57;;;;;;;2.70;1.40;;;;;;;45.08;12.85;100582.69;4862756;29;20049;-80
2021/06/17 06:35:24;;;;;;;2.28;1.45;;;;;;;45.73;12.27;100575.97;4865198;29;20045;-79
2021/06/17 06:37:51;;;;;;;1.65;1.10;;;;;;;46.12;11.78;100584.81;4839029;29;20056;-81
2021/06/17 06:40:20;;;;;;;2.13;1.10;;;;;;;46.05;11.42;100578.56;4848901;29;20045;-81
2021/06/17 06:42:46;;;;;;;1.58;0.93;;;;;;;46.29;10.63;100581.41;4846560;29;20403;-84
2021/06/17 06:45:13;;;;;;;2.78;1.20;;;;;;;45.93;10.87;100570.22;4864393;29;20051;-82
2021/06/17 06:47:40;;;;;;;2.03;1.00;;;;;;;46.34;10.71;100586.22;4848165;29;20046;-81
2021/06/17 06:50:08;;;;;;;2.45;1.10;;;;;;;46.77;10.36;100586.03;4864408;29;20468;-85
2021/06/17 06:52:34;;;;;;;4.63;1.13;;;;;;;47.49;9.75;100583.38;4833027;29;20498;-81
2021/06/17 06:55:00;;;;;;;1.63;0.82;;;;;;;47.61;9.56;100573.19;4837975;29;20045;-85
2021/06/17 06:57:27;;;;;;;2.83;1.85;;;;;;;48.29;9.09;100588.34;4866544;29;20049;-81
2021/06/17 06:59:54;;;;;;;3.10;1.45;;;;;;;48.55;9.33;100575.91;4866524;29;20145;-81
2021/06/17 07:02:20;;;;;;;2.70;1.77;;;;;;;49.21;8.56;100582.81;4851213;29;20056;-81
2021/06/17 07:04:46;;;;;;;5.40;1.30;;;;;;;49.71;8.13;100587.41;4867061;29;20041;-81
2021/06/17 07:07:12;;;;;;;2.05;1.25;;;;;;;50.13;8.06;100598.97;4866112;29;20164;-84
2021/06/17 07:09:39;;;;;;;2.67;1.90;;;;;;;50.49;7.98;100602.97;4864024;29;20042;-82
2021/06/17 07:12:07;;;;;;;3.25;1.40;;;;;;;50.67;7.54;100603.72;4864095;29;20062;-85
2021/06/17 07:14:33;;;;;;;2.30;1.27;;;;;;;50.53;7.70;100608.84;4849988;29;20045;-83
2021/06/17 07:17:01;;;;;;;2.95;1.20;;;;;;;50.34;7.16;100534.50;4846096;29;20111;-84
2021/06/17 07:19:27;;;;;;;3.70;1.00;;;;;;;50.93;7.41;100601.19;4863022;29;20136;-81
2021/06/17 07:21:54;;;;;;;3.42;3.13;;;;;;;51.01;7.18;100592.38;4865682;29;20050;-83
2021/06/17 07:24:20;;;;;;;6.82;5.60;;;;;;;50.67;7.33;100569.66;4870559;29;20052;-84
2021/06/17 07:26:50;;;;;;;3.15;1.50;;;;;;;51.07;7.26;100568.34;4828405;29;20070;-87
2021/06/17 07:29:16;;;;;;;2.05;1.92;;;;;;;51.14;6.96;100580.00;4875987;29;20046;-83
2021/06/17 07:31:42;;;;;;;4.32;1.40;;;;;;;51.55;6.88;100584.97;4837720;29;20090;-83
2021/06/17 07:34:10;;;;;;;3.83;3.53;;;;;;;52.12;6.98;100610.19;4850761;29;20041;-88
2021/06/17 07:36:39;;;;;;;3.30;3.00;;;;;;;52.15;6.48;100597.72;4833697;29;20506;-85
2021/06/17 07:39:07;;;;;;;5.20;2.80;;;;;;;52.23;6.88;100580.50;4844646;29;20045;-85
2021/06/17 07:41:33;;;;;;;2.03;1.92;;;;;;;52.48;6.17;100562.25;4845546;29;20129;-88
2021/06/17 07:43:59;;;;;;;3.58;2.10;;;;;;;52.41;6.10;100560.63;4849292;29;20041;-85
2021/06/17 07:46:25;;;;;;;2.22;1.95;;;;;;;52.78;6.39;100596.72;4868286;29;20514;-88
2021/06/17 07:48:51;;;;;;;2.63;2.03;;;;;;;53.21;5.76;100613.06;4866355;29;20049;-86
2021/06/17 07:51:17;;;;;;;2.83;2.30;;;;;;;53.28;6.23;100592.25;4848644;29;20037;-82
2021/06/17 07:53:43;;;;;;;3.63;1.55;;;;;;;53.35;6.23;100596.66;4865432;29;20078;-81
2021/06/17 07:56:10;;;;;;;3.30;2.13;;;;;;;53.28;6.23;100600.59;4873131;29;20037;-81
2021/06/17 07:58:37;;;;;;;3.47;1.58;;;;;;;53.41;6.11;100589.97;4873695;29;20674;-86
2021/06/17 08:01:05;;;;;;;2.30;1.70;;;;;;;52.66;6.55;100553.41;4853531;29;20139;-79
2021/06/17 08:03:31;;;;;;;2.55;1.58;;;;;;;52.77;5.93;100581.97;4855116;29;20053;-83
2021/06/17 08:05:57;;;;;;;4.53;1.70;;;;;;;52.78;6.38;100633.63;4833845;29;20057;-82
2021/06/17 08:08:24;;;;;;;2.10;1.73;;;;;;;52.19;6.42;100612.72;4832295;29;20070;-84
2021/06/17 08:10:50;;;;;;;4.95;1.70;;;;;;;52.28;6.56;100619.41;4860680;29;20041;-85
2021/06/17 08:13:17;;;;;;;2.70;1.77;;;;;;;52.97;5.48;100613.69;4830180;29;20086;-83
2021/06/17 08:15:47;;;;;;;2.55;1.88;;;;;;;53.41;6.29;100623.31;4830136;29;20208;-84
2021/06/17 08:18:14;;;;;;;1.88;1.77;;;;;;;53.18;5.72;100583.91;4866754;29;20464;-82
2021/06/17 08:20:42;;;;;;;2.17;1.77;;;;;;;53.24;6.30;100588.34;4838111;29;20493;-83
2021/06/17 08:23:11;;;;;;;2.97;1.42;;;;;;;53.58;5.99;100617.44;4842331;29;20060;-83
2021/06/17 08:25:45;;;;;;;3.17;1.67;;;;;;;54.15;5.30;100631.97;4873907;29;20109;-82
2021/06/17 08:28:25;;;;;;;3.50;1.83;;;;;;;53.22;5.37;100604.47;4840313;29;20700;-83
2021/06/17 08:30:54;;;;;;;2.88;1.60;;;;;;;52.53;5.66;100553.94;4835357;29;20037;-86
2021/06/17 08:33:21;;;;;;;3.67;1.50;;;;;;;52.91;5.42;100635.00;4843695;29;20090;-79
2021/06/17 08:35:52;;;;;;;3.80;1.85;;;;;;;52.28;6.28;100640.78;4816034;29;20148;-79
2021/06/17 08:38:20;;;;;;;5.25;1.73;;;;;;;52.63;5.71;100636.41;4833527;29;20056;-79
2021/06/17 08:40:47;;;;;;;1.80;1.65;;;;;;;52.63;6.19;100620.59;4855084;29;20201;-80
2021/06/17 08:43:13;;;;;;;2.17;1.50;;;;;;;52.34;6.06;100617.47;4865687;29;20067;-81
2021/06/17 08:45:41;;;;;;;4.03;1.60;;;;;;;52.49;5.71;100624.97;4855589;29;20065;-80
2021/06/17 08:48:07;;;;;;;2.92;1.42;;;;;;;52.68;5.95;100609.47;4858059;29;20048;-75
2021/06/17 08:50:34;;;;;;;2.63;1.70;;;;;;;53.25;6.08;100623.34;4855601;29;20545;-79
2021/06/17 08:53:00;;;;;;;2.03;1.60;;;;;;;53.67;5.54;100623.28;4844405;29;20052;-78
2021/06/17 08:55:30;;;;;;;6.75;1.50;;;;;;;53.13;5.67;100608.91;4828324;29;20050;-81
2021/06/17 08:57:57;;;;;;;3.10;1.65;;;;;;;53.26;5.96;100616.69;4844262;29;20041;-81
2021/06/17 09:00:23;;;;;;;3.35;1.63;;;;;;;53.21;5.96;100622.25;4844065;29;20434;-79
2021/06/17 09:03:05;;;;;;;8.40;1.92;;;;;;;53.13;5.38;100617.25;4842412;29;20482;-79
2021/06/17 09:05:35;;;;;;;3.35;1.60;;;;;;;52.64;5.91;100593.66;4843389;29;20125;-78
2021/06/17 09:08:01;;;;;;;3.10;1.50;;;;;;;52.51;6.11;100617.22;4859578;29;20073;-78
2021/06/17 09:10:29;;;;;;;4.35;1.58;;;;;;;52.46;6.45;100615.28;4859198;29;20045;-79
2021/06/17 09:12:58;;;;;;;1.83;1.73;;;;;;;52.98;5.92;100595.88;4829065;29;20120;-82
2021/06/17 09:15:33;;;;;;;2.28;1.90;;;;;;;53.27;6.12;100604.47;4826565;29;20049;-82
2021/06/17 09:18:20;;;;;;;3.20;1.83;;;;;;;53.16;5.30;100567.53;4823140;29;20074;-79
2021/06/17 09:21:01;;;;;;;2.97;1.83;;;;;;;53.31;5.31;100600.00;4846028;29;20098;-80
2021/06/17 09:23:30;;;;;;;2.72;1.50;;;;;;;52.70;5.53;100604.47;4832703;29;20044;-80
2021/06/17 09:26:19;;;;;;;3.03;1.67;;;;;;;52.52;5.54;100603.09;4830496;29;20045;-79
2021/06/17 09:29:07;;;;;;;3.00;1.60;;;;;;;51.89;5.84;100519.97;4842658;29;20041;-79
2021/06/17 09:31:44;;;;;;;4.35;1.70;;;;;;;52.30;5.31;100552.56;4843000;29;20059;-79
2021/06/17 09:34:17;;;;;;;6.38;1.85;;;;;;;52.74;5.03;100593.69;4827823;29;20141;-79
2021/06/17 09:36:49;;;;;;;5.93;1.67;;;;;;;52.66;4.99;100589.50;4843488;29;20045;-79
2021/06/17 09:39:21;;;;;;;2.80;1.85;;;;;;;52.35;6.06;100605.25;4843178;29;20059;-77
2021/06/17 09:41:50;;;;;;;2.28;1.80;;;;;;;51.98;5.84;100612.63;4860033;29;20055;-80
2021/06/17 09:44:47;;;;;;;2.72;1.38;;;;;;;51.65;5.87;100589.75;4845393;29;20119;-79
2021/06/17 09:47:18;;;;;;;4.28;1.58;;;;;;;51.76;6.03;100598.94;4831477;29;20073;-79
2021/06/17 09:49:51;;;;;;;2.42;1.52;;;;;;;51.68;5.33;100597.53;4846258;29;20059;-80
2021/06/17 09:52:20;;;;;;;3.47;1.67;;;;;;;51.55;5.91;100595.22;4863007;29;20060;-80
2021/06/17 09:54:47;;;;;;;;;;;;;;;51.31;6.20;100595.66;4847596;29;20470;-79
2021/06/17 09:57:20;;;;;;;3.90;1.50;;;;;;;49.95;6.57;100575.25;4847168;29;19920;-82
2021/06/17 10:00:05;;;;;;;2.80;1.30;;;;;;;50.07;6.71;100583.41;4845400;29;20041;-80
2021/06/17 10:02:40;;;;;;;2.35;1.55;;;;;;;49.18;6.91;100558.44;4863776;29;20073;-79
2021/06/17 10:05:19;;;;;;;1.73;1.50;;;;;;;48.05;7.08;100566.38;4862758;29;20139;-80
2021/06/17 10:07:48;;;;;;;4.03;1.60;;;;;;;48.27;7.38;100572.06;4831528;29;20074;-81
2021/06/17 10:10:17;;;;;;;3.85;1.30;;;;;;;48.24;7.99;100553.25;4863304;29;20509;-80
2021/06/17 10:12:44;;;;;;;3.75;1.40;;;;;;;48.46;6.82;100566.34;4847186;29;20118;-79
2021/06/17 10:15:10;;;;;;;5.13;1.35;;;;;;;48.52;6.96;100582.75;4843682;29;20072;-80
2021/06/17 10:17:37;;;;;;;3.00;1.20;;;;;;;48.68;7.20;100547.13;4847106;29;20045;-80
2021/06/17 10:20:05;;;;;;;2.55;1.10;;;;;;;48.76;6.85;100537.66;4847290;29;20082;-79
2021/06/17 10:22:32;;;;;;;5.72;1.33;;;;;;;49.10;6.94;100554.19;4835167;29;20038;-78
2021/06/17 10:25:00;;;;;;;2.22;1.15;;;;;;;48.08;7.40;100543.84;4859337;29;20049;-81
2021/06/17 10:27:37;;;;;;;1.58;1.08;;;;;;;46.02;7.95;100560.59;4832962;29;20044;-81
2021/06/17 10:30:06;;;;;;;2.78;1.35;;;;;;;44.13;9.36;100567.84;4864795;29;20080;-80
2021/06/17 10:32:38;;;;;;;3.53;1.30;;;;;;;42.44;10.01;100581.53;4848633;29;20109;-80
2021/06/17 10:35:05;;;;;;;5.18;1.50;;;;;;;40.64;10.88;100558.19;4864211;29;20045;-78
2021/06/17 10:37:50;;;;;;;1.20;1.10;;;;;;;39.30;11.45;100578.13;4866441;29;20414;-81
2021/06/17 10:40:19;;;;;;;2.33;1.10;;;;;;;38.04;12.41;100594.47;4852541;29;20045;-80
2021/06/17 10:42:51;;;;;;;2.65;1.33;;;;;;;37.19;13.15;100570.31;4874316;29;20049;-80
2021/06/17 10:45:39;;;;;;;3.42;2.65;;;;;;;36.13;13.82;100596.97;4838322;29;20052;-79
2021/06/17 10:48:21;;;;;;;2.78;1.98;;;;;;;35.03;15.04;100569.44;4869319;29;20174;-81
2021/06/17 10:51:03;;;;;;;95.07;48.03;;;;;;;34.65;15.52;100599.25;4848044;29;20038;-81
2021/06/17 10:53:35;;;;;;;5.45;1.60;;;;;;;34.29;15.86;100597.28;4845981;29;20049;-82
2021/06/17 10:56:19;;;;;;;3.50;1.40;;;;;;;33.60;16.14;100545.38;4848858;29;20048;-78
2021/06/17 10:58:45;;;;;;;4.15;1.40;;;;;;;33.47;16.36;100594.25;4862212;29;20045;-83
2021/06/17 11:01:31;;;;;;;2.78;1.30;;;;;;;32.94;17.48;100606.28;4864122;29;20206;-79
2021/06/17 11:04:03;;;;;;;3.22;1.60;;;;;;;32.51;17.52;100601.06;4847006;29;20053;-81
2021/06/17 11:06:55;;;;;;;2.13;1.25;;;;;;;32.16;17.92;100613.09;4846821;29;20516;-82
2021/06/17 11:09:39;;;;;;;2.55;1.30;;;;;;;31.88;17.98;100598.53;4853664;29;20052;-80
2021/06/17 11:12:21;;;;;;;4.10;1.85;;;;;;;31.52;18.76;100609.59;4861473;29;20496;-85
2021/06/17 11:14:56;;;;;;;1.98;1.33;;;;;;;31.31;18.63;100615.81;4834915;29;20140;-81
2021/06/17 11:17:30;;;;;;;2.35;1.60;;;;;;;31.05;19.28;100616.13;4853122;29;20124;-81
2021/06/17 11:20:13;;;;;;;13.68;1.50;;;;;;;30.58;19.75;100610.13;4833269;29;20034;-83
2021/06/17 11:22:45;;;;;;;2.50;1.15;;;;;;;29.88;20.10;100541.28;4837733;29;20045;-85
2021/06/17 11:25:33;;;;;;;2.25;1.30;;;;;;;30.10;20.67;100628.13;4858131;29;20032;-83
2021/06/17 11:28:46;;;;;;;2.90;1.60;;;;;;;29.70;20.86;100607.09;4831702;29;20095;-81
2021/06/17 11:31:42;;;;;;;3.30;1.50;;;;;;;29.25;21.14;100572.91;4851930;29;20445;-83
2021/06/17 11:34:10;;;;;;;2.05;1.30;;;;;;;29.12;21.40;100586.41;4864668;29;20556;-80
2021/06/17 11:36:49;;;;;;;2.75;1.77;;;;;;;29.28;21.55;100623.59;4833341;29;20497;-79
2021/06/17 11:39:26;;;;;;;2.88;1.40;;;;;;;29.18;21.85;100606.50;4869888;29;20057;-83
2021/06/17 11:42:05;;;;;;;5.13;1.40;;;;;;;29.00;22.01;100620.31;4862435;29;20033;-83
2021/06/17 11:44:40;;;;;;;2.40;1.20;;;;;;;28.43;22.39;100547.63;4829586;29;20046;-85
2021/06/17 11:47:15;;;;;;;4.63;1.40;;;;;;;28.75;22.36;100621.22;4859581;29;20057;-81